Terminal Aerodrome Forecast
Issued by NWS

Home | Current Version | Previous Version | Text Only | Print | Product List | Glossary On
Versions: 1 2 3 4 5 6 7 8 9 10 11 12 13 14 15 16 17 18 19 20 21 22 23
000
FTUS41 KGYX 260538
TAFHIE
TAF
KHIE 260538Z 2606/2706 26005KT P6SM BKN050
     FM261100 VRB03KT P6SM OVC040
     FM261700 05008KT 4SM -SN BR OVC025
     FM262100 04008KT 1/2SM SN FG OVC009=

USA.gov is the U.S. government's official web portal to all federal, state and local government web resources and services.